Main page
METAR-TAF:

METAR-TAF

Airports :

London Biggin Hill Airport

London Biggin Hill, England

latitude: 51-19N, longitude: 000-02E, elevation: 183 m

Current weather observation

The report was made 31 minutes ago, at 18:50 UTC
Wind 16 kt from the South/Southwest with gusts up to 29 kt
Temperature 16°C
Humidity 77%
Pressure 1007 hPa
Visibility 10 km or more
Scattered clouds at a height of 2100 ft
showers in vicinity

METAR: EGKB 281850Z 21016G29KT 9999 VCSH SCT021 16/12 Q1007

Time: 20:21 (19:21 UTC)

Forecast

The report was made 43 minutes ago, at 18:38 UTC
Forecast valid from 28 at 18 UTC to 28 at 22 UTC
Wind 12 kt from the Southwest
Visibility 10 km or more
Scattered clouds at a height of 2500 ft
Probability 40% :
Temporary
from 28 at 18 UTC to 28 at 20 UTC
Wind 15 kt from the West/Southwest with gusts up to 27 kt
Visibility: 4000 m
heavy rain showers, thunderstorm, rain

TAF: EGKB 281838Z 2818/2822 23012KT 9999 SCT025 PROB40 TEMPO 2818/2820 24015G27KT 4000 +SHRA TSRA

Weather observations and forecasts of more than 4000 airports (METAR and TAF reports).

The available stations are represented by yellow and red dots on the map.

Hover mouse over dot to see the name of the station.

Then click to see weather observations and forecasts.

To change the map : click on the green buttons with a black cross to zoom in, on the green button with a dash to zoom out, or on the green arrows for adjacent maps.


METAR-TAF: